Time;durP1;ratioP1;P1;durP2;ratioP2;P2;SDS_P1;SDS_P2;PMS_P1;PMS_P2;Temp;Humidity;BMP_temperature;BMP_pressure;BME280_temperature;BME280_humidity;BME280_pressure;Samples;Min_cycle;Max_cycle;Signal;HPM_P1;HPM_P2
2021/09/03 00:01:24;;;;;;;2.05;1.70;;;15.10;59.40;;;;;;5013641;28;20200;-41
2021/09/03 00:03:55;;;;;;;2.38;1.60;;;15.20;59.50;;;;;;5014450;28;20235;-43
2021/09/03 00:06:25;;;;;;;2.15;1.70;;;15.20;59.50;;;;;;5014288;28;20231;-45
2021/09/03 00:08:57;;;;;;;2.83;1.75;;;15.20;59.50;;;;;;5013631;28;20259;-41
2021/09/03 00:11:28;;;;;;;1.90;1.70;;;15.30;59.60;;;;;;5013491;28;20595;-42
2021/09/03 00:13:58;;;;;;;1.65;1.55;;;15.30;59.60;;;;;;5013335;28;20673;-41
2021/09/03 00:16:29;;;;;;;3.00;1.90;;;15.30;59.60;;;;;;5013688;28;20237;-40
2021/09/03 00:18:59;;;;;;;3.83;2.03;;;15.40;59.60;;;;;;5014253;28;20268;-50
2021/09/03 00:21:29;;;;;;;4.38;1.90;;;15.40;59.50;;;;;;5014036;28;20196;-47
2021/09/03 00:24:02;;;;;;;3.60;1.90;;;15.40;59.50;;;;;;5014347;28;20236;-55
2021/09/03 00:26:32;;;;;;;1.67;1.50;;;15.40;59.50;;;;;;5014286;28;20239;-50
2021/09/03 00:29:03;;;;;;;2.08;1.52;;;15.40;59.40;;;;;;5013825;28;20311;-53
2021/09/03 00:31:33;;;;;;;1.77;1.60;;;15.50;59.40;;;;;;5013702;28;20280;-54
2021/09/03 00:34:03;;;;;;;1.63;1.45;;;15.50;59.40;;;;;;5013661;28;20286;-55
2021/09/03 00:36:34;;;;;;;2.47;1.90;;;15.50;59.40;;;;;;5013505;28;20243;-55
2021/09/03 00:39:06;;;;;;;4.40;1.85;;;15.60;59.70;;;;;;5013677;28;20307;-51
2021/09/03 00:41:37;;;;;;;3.22;1.83;;;15.70;59.80;;;;;;5013729;28;20239;-53
2021/09/03 00:44:07;;;;;;;2.97;1.60;;;15.70;59.70;;;;;;5011731;28;20240;-59
2021/09/03 00:46:38;;;;;;;2.63;1.60;;;15.70;59.70;;;;;;5013762;28;20283;-54
2021/09/03 00:49:09;;;;;;;2.05;1.50;;;15.80;59.90;;;;;;5010206;28;20724;-56
2021/09/03 00:51:39;;;;;;;3.42;1.90;;;15.80;59.90;;;;;;5010767;28;20289;-49
2021/09/03 00:54:12;;;;;;;2.45;1.63;;;15.90;60.00;;;;;;5012200;28;20272;-40
2021/09/03 00:56:43;;;;;;;1.77;1.67;;;15.90;59.90;;;;;;5012403;28;20276;-52
2021/09/03 00:59:14;;;;;;;2.22;1.55;;;16.00;59.90;;;;;;5011074;28;20756;-41
2021/09/03 01:01:44;;;;;;;3.90;1.67;;;16.00;59.80;;;;;;5012500;28;20232;-41
2021/09/03 01:04:14;;;;;;;2.22;1.40;;;16.00;59.80;;;;;;5011595;28;20284;-40
2021/09/03 01:06:45;;;;;;;2.33;1.77;;;16.10;59.80;;;;;;5012535;28;20491;-42
2021/09/03 01:09:17;;;;;;;2.38;1.50;;;16.10;59.80;;;;;;5012248;28;20316;-40
2021/09/03 01:11:47;;;;;;;8.20;2.08;;;16.10;59.70;;;;;;5011258;28;20229;-40
2021/09/03 01:14:18;;;;;;;2.15;1.40;;;16.20;59.70;;;;;;5011398;28;20228;-41
2021/09/03 01:16:49;;;;;;;3.05;1.55;;;16.20;59.60;;;;;;5012352;28;20900;-44
2021/09/03 01:19:19;;;;;;;1.92;1.75;;;16.20;59.60;;;;;;5012737;28;20315;-41
2021/09/03 01:21:53;;;;;;;2.28;1.80;;;16.20;59.50;;;;;;5011132;28;20228;-43
2021/09/03 01:24:23;;;;;;;2.13;1.52;;;16.30;59.50;;;;;;5012336;28;20237;-43
2021/09/03 01:26:53;;;;;;;1.60;1.38;;;16.30;59.40;;;;;;5012129;28;20288;-44
2021/09/03 01:29:24;;;;;;;2.83;1.70;;;16.40;59.50;;;;;;5011857;28;20314;-44
2021/09/03 01:31:54;;;;;;;1.83;1.63;;;16.40;59.40;;;;;;5011600;28;20228;-51
2021/09/03 01:34:25;;;;;;;2.13;1.60;;;16.40;59.40;;;;;;5012237;28;20633;-41
2021/09/03 01:36:57;;;;;;;1.63;1.27;;;16.40;59.40;;;;;;5011787;28;20247;-43
2021/09/03 01:39:27;;;;;;;2.17;1.60;;;16.40;59.90;;;;;;5013150;28;20693;-42
2021/09/03 01:41:58;;;;;;;1.83;1.60;;;16.50;59.30;;;;;;5012253;28;20700;-46
2021/09/03 01:44:28;;;;;;;3.13;1.65;;;16.50;59.20;;;;;;5011202;28;20745;-40
2021/09/03 01:46:59;;;;;;;1.75;1.25;;;16.60;59.00;;;;;;4992670;28;20241;-49
2021/09/03 01:49:29;;;;;;;1.45;1.30;;;16.60;59.00;;;;;;4992516;28;20854;-40
2021/09/03 01:52:01;;;;;;;3.42;1.83;;;16.60;59.00;;;;;;4992660;28;20237;-43
2021/09/03 01:54:32;;;;;;;1.88;1.48;;;16.60;59.20;;;;;;4992486;28;20288;-48
2021/09/03 01:57:02;;;;;;;3.25;1.83;;;16.70;59.20;;;;;;4992469;28;20237;-43
2021/09/03 01:59:33;;;;;;;2.05;1.45;;;16.70;59.20;;;;;;5008288;28;20251;-40
2021/09/03 02:02:03;;;;;;;2.05;1.55;;;16.70;59.10;;;;;;5009441;28;20280;-47
2021/09/03 02:04:33;;;;;;;2.47;1.55;;;16.70;59.10;;;;;;5011684;28;20235;-44
2021/09/03 02:07:06;;;;;;;2.50;1.70;;;16.80;59.00;;;;;;5011634;28;20204;-45
2021/09/03 02:09:36;;;;;;;2.17;1.40;;;16.80;59.00;;;;;;5012362;28;20273;-41
2021/09/03 02:12:07;;;;;;;2.85;1.60;;;16.80;58.90;;;;;;5012330;28;20236;-40
2021/09/03 02:14:37;;;;;;;2.55;1.40;;;16.90;58.90;;;;;;5012200;28;20228;-50
2021/09/03 02:17:08;;;;;;;2.00;1.40;;;16.90;58.90;;;;;;5012524;28;20236;-42
2021/09/03 02:19:39;;;;;;;2.00;1.52;;;16.90;58.90;;;;;;5012655;28;20260;-41
2021/09/03 02:22:11;;;;;;;2.72;1.50;;;17.00;58.80;;;;;;5011913;28;20287;-41
2021/09/03 02:24:42;;;;;;;1.83;1.48;;;17.00;58.80;;;;;;5011981;28;20293;-50
2021/09/03 02:27:12;;;;;;;2.72;1.42;;;17.00;58.70;;;;;;5012043;28;20293;-41
2021/09/03 02:29:42;;;;;;;1.40;1.30;;;17.10;58.70;;;;;;5011778;28;20275;-49
2021/09/03 02:32:16;;;;;;;1.92;1.40;;;17.10;58.70;;;;;;5011470;28;20236;-56
2021/09/03 02:34:47;;;;;;;1.88;1.38;;;17.10;58.60;;;;;;5011502;28;20201;-52
2021/09/03 02:37:19;;;;;;;2.10;1.60;;;17.10;58.50;;;;;;5011160;28;20283;-41
2021/09/03 02:39:49;;;;;;;1.88;1.35;;;17.20;58.50;;;;;;5011456;28;20306;-45
2021/09/03 02:42:20;;;;;;;2.15;1.38;;;17.20;58.40;;;;;;5011754;28;20201;-49
2021/09/03 02:44:50;;;;;;;3.17;1.33;;;17.30;58.40;;;;;;5011727;28;20283;-44
2021/09/03 02:47:20;;;;;;;2.67;1.50;;;17.30;58.30;;;;;;5011655;28;20224;-51
2021/09/03 02:49:51;;;;;;;2.05;1.30;;;17.30;58.30;;;;;;5011166;28;20283;-49
2021/09/03 02:52:23;;;;;;;1.63;1.20;;;17.40;58.20;;;;;;5011267;28;20630;-42
2021/09/03 02:54:54;;;;;;;1.90;1.42;;;17.40;58.10;;;;;;5011496;28;20232;-42
2021/09/03 02:57:24;;;;;;;2.05;1.50;;;17.50;58.20;;;;;;5011435;28;20610;-50
2021/09/03 02:59:54;;;;;;;1.83;1.10;;;17.50;58.20;;;;;;5011257;28;20642;-42
2021/09/03 03:02:25;;;;;;;1.73;1.33;;;17.50;58.10;;;;;;5011247;28;20642;-40
2021/09/03 03:04:55;;;;;;;2.97;1.50;;;17.50;58.30;;;;;;5011242;28;20283;-56
2021/09/03 03:07:29;;;;;;;1.88;1.40;;;17.60;58.40;;;;;;5010038;28;20224;-49
2021/09/03 03:09:59;;;;;;;1.45;1.25;;;17.60;59.00;;;;;;5011186;28;20329;-47
2021/09/03 03:12:30;;;;;;;1.30;1.20;;;17.70;58.30;;;;;;5011222;28;20639;-58
2021/09/03 03:15:00;;;;;;;2.30;1.15;;;17.70;58.20;;;;;;5011675;28;20658;-55
2021/09/03 03:17:31;;;;;;;2.35;1.45;;;17.80;58.20;;;;;;5011054;28;20621;-56
2021/09/03 03:20:01;;;;;;;2.88;1.50;;;17.80;58.10;;;;;;5036879;23;20743;-65
2021/09/03 03:22:33;;;;;;;1.40;1.10;;;17.80;57.90;;;;;;5029252;28;20764;-54
2021/09/03 03:25:04;;;;;;;3.78;1.50;;;17.90;57.90;;;;;;5030418;28;20273;-60
2021/09/03 03:27:34;;;;;;;1.83;1.20;;;17.90;57.80;;;;;;5029627;28;20235;-60
2021/09/03 03:30:05;;;;;;;1.17;1.08;;;18.00;57.90;;;;;;5012282;28;20307;-58
2021/09/03 03:32:36;;;;;;;1.20;1.02;;;18.00;57.80;;;;;;5021143;28;20240;-64
2021/09/03 03:35:07;;;;;;;1.85;1.30;;;18.10;57.80;;;;;;5030559;28;20235;-62
2021/09/03 03:37:39;;;;;;;1.88;1.20;;;18.00;57.60;;;;;;5030569;28;20266;-59
2021/09/03 03:40:10;;;;;;;2.35;1.25;;;18.10;57.60;;;;;;5030767;28;20267;-46
2021/09/03 03:42:41;;;;;;;2.45;1.52;;;18.10;57.60;;;;;;5030967;28;20228;-66
2021/09/03 03:45:12;;;;;;;2.10;1.30;;;18.20;57.50;;;;;;5030362;28;20239;-46
2021/09/03 03:47:42;;;;;;;1.67;1.20;;;18.20;57.50;;;;;;5030128;28;20249;-64
2021/09/03 03:50:13;;;;;;;1.40;1.30;;;18.20;57.40;;;;;;5030346;28;20282;-64
2021/09/03 03:52:46;;;;;;;2.38;1.48;;;18.30;57.40;;;;;;5030135;28;20211;-57
2021/09/03 03:55:16;;;;;;;1.38;1.10;;;18.30;57.40;;;;;;5030741;28;20243;-60
2021/09/03 03:57:47;;;;;;;1.10;1.00;;;18.30;57.30;;;;;;5028134;28;20223;-62
2021/09/03 04:00:18;;;;;;;1.35;1.25;;;18.40;57.30;;;;;;5029698;28;20217;-66
2021/09/03 04:02:49;;;;;;;2.30;1.50;;;18.40;57.20;;;;;;5029373;28;20235;-63
2021/09/03 04:05:20;;;;;;;1.63;1.10;;;18.50;57.10;;;;;;5030233;28;20207;-64
2021/09/03 04:07:52;;;;;;;1.58;1.20;;;18.50;57.00;;;;;;5029931;28;20201;-56
2021/09/03 04:10:24;;;;;;;2.05;1.38;;;18.50;56.90;;;;;;5030248;28;20231;-66
2021/09/03 04:12:55;;;;;;;2.97;1.35;;;18.50;56.90;;;;;;5030416;28;20702;-62
2021/09/03 04:15:25;;;;;;;1.85;1.27;;;18.60;56.90;;;;;;5030588;28;20199;-64
2021/09/03 04:17:56;;;;;;;2.40;1.40;;;18.60;56.90;;;;;;5030175;28;20196;-67
2021/09/03 04:20:27;;;;;;;1.85;1.23;;;18.60;56.90;;;;;;5033674;28;20254;-58
2021/09/03 04:22:59;;;;;;;1.55;1.30;;;18.60;56.80;;;;;;5033745;28;20200;-67
2021/09/03 04:25:30;;;;;;;1.70;1.30;;;18.70;56.80;;;;;;5033673;28;20198;-58
2021/09/03 04:28:01;;;;;;;2.17;1.30;;;18.70;56.80;;;;;;5033451;28;20231;-57
2021/09/03 04:30:31;;;;;;;1.33;1.13;;;18.80;56.80;;;;;;5033412;28;20220;-49
2021/09/03 04:33:02;;;;;;;1.67;1.35;;;18.80;56.70;;;;;;5033793;28;20597;-57
2021/09/03 04:35:33;;;;;;;2.10;1.27;;;18.80;56.60;;;;;;5033898;28;20657;-57
2021/09/03 04:38:05;;;;;;;1.58;1.20;;;18.80;56.60;;;;;;5034278;28;20206;-63
2021/09/03 04:40:36;;;;;;;1.20;1.10;;;18.90;56.50;;;;;;5033781;28;20291;-58
2021/09/03 04:43:07;;;;;;;1.55;1.30;;;18.90;56.50;;;;;;5033459;28;20200;-55
2021/09/03 04:45:38;;;;;;;1.90;1.20;;;18.90;56.40;;;;;;5033529;28;20466;-64
2021/09/03 04:48:09;;;;;;;1.35;1.23;;;18.90;56.40;;;;;;5032744;28;20192;-62
2021/09/03 04:50:39;;;;;;;1.77;1.10;;;19.00;56.40;;;;;;5033365;28;20230;-68
2021/09/03 04:53:12;;;;;;;2.65;1.40;;;19.00;56.30;;;;;;5033393;28;20200;-63
2021/09/03 04:55:43;;;;;;;1.63;1.48;;;19.00;56.20;;;;;;5033632;28;20196;-48
2021/09/03 04:58:13;;;;;;;3.08;1.13;;;19.00;56.10;;;;;;5033072;28;20196;-64
2021/09/03 05:00:44;;;;;;;2.33;1.23;;;19.00;56.00;;;;;;5032548;28;20197;-61
2021/09/03 05:03:15;;;;;;;1.75;1.23;;;19.00;55.90;;;;;;5032919;28;20207;-68
2021/09/03 05:05:45;;;;;;;1.50;1.40;;;19.00;55.80;;;;;;5033421;28;20192;-59
2021/09/03 05:08:18;;;;;;;1.52;1.10;;;19.10;55.80;;;;;;5033413;28;20197;-63
2021/09/03 05:10:49;;;;;;;1.60;1.33;;;19.10;55.60;;;;;;5032647;28;20224;-64
2021/09/03 05:13:20;;;;;;;2.40;1.15;;;19.10;55.60;;;;;;5033006;28;20208;-57
2021/09/03 05:15:50;;;;;;;1.52;1.40;;;19.10;55.50;;;;;;5033065;28;20223;-60
2021/09/03 05:18:21;;;;;;;1.27;1.13;;;19.10;55.50;;;;;;5033571;28;20196;-50
2021/09/03 05:20:52;;;;;;;1.25;1.15;;;19.10;55.60;;;;;;5033002;28;20222;-59
2021/09/03 05:23:24;;;;;;;1.92;1.23;;;19.10;55.70;;;;;;5032789;28;20196;-62
2021/09/03 05:25:55;;;;;;;3.92;1.40;;;19.10;55.80;;;;;;5033330;28;20292;-70
2021/09/03 05:28:27;;;;;;;3.90;1.60;;;19.10;55.80;;;;;;5033297;28;20563;-67
2021/09/03 05:30:58;;;;;;;3.63;1.90;;;19.20;55.80;;;;;;5031676;28;20702;-61
2021/09/03 05:33:29;;;;;;;2.95;1.58;;;19.20;55.70;;;;;;5032739;28;20274;-65
2021/09/03 05:36:00;;;;;;;3.42;1.48;;;19.10;55.50;;;;;;5025870;28;20193;-69
2021/09/03 05:38:32;;;;;;;4.05;1.70;;;19.20;55.40;;;;;;5025452;28;20227;-52
2021/09/03 05:41:03;;;;;;;2.97;1.83;;;19.20;55.40;;;;;;5032492;28;20206;-51
2021/09/03 05:43:34;;;;;;;2.70;1.70;;;19.20;55.50;;;;;;5032510;28;20200;-56
2021/09/03 05:46:04;;;;;;;2.00;1.70;;;19.20;55.50;;;;;;5032674;28;20203;-58
2021/09/03 05:48:35;;;;;;;3.97;1.85;;;19.20;55.50;;;;;;5021030;28;20227;-61
2021/09/03 05:51:06;;;;;;;4.90;1.98;;;19.10;55.40;;;;;;5012548;28;20657;-55
2021/09/03 05:53:38;;;;;;;3.08;1.73;;;19.10;55.40;;;;;;5012466;28;20203;-55
2021/09/03 05:56:09;;;;;;;3.53;1.80;;;19.10;55.40;;;;;;5012356;28;20193;-66
2021/09/03 05:58:40;;;;;;;3.55;1.65;;;19.10;55.30;;;;;;5012922;28;20233;-49
2021/09/03 06:01:11;;;;;;;2.88;1.83;;;19.10;55.30;;;;;;5030035;28;20210;-65
2021/09/03 06:03:41;;;;;;;3.33;1.63;;;19.10;55.90;;;;;;5031881;28;20196;-62
2021/09/03 06:06:12;;;;;;;3.67;1.75;;;19.10;55.40;;;;;;5031653;28;20443;-53
2021/09/03 06:08:45;;;;;;;2.10;1.70;;;19.10;55.30;;;;;;5031590;28;20227;-47
2021/09/03 06:11:15;;;;;;;3.08;1.70;;;19.10;55.20;;;;;;5032171;28;20207;-55
2021/09/03 06:13:46;;;;;;;2.90;1.67;;;19.00;55.20;;;;;;5032080;28;20691;-58
2021/09/03 06:16:17;;;;;;;3.30;1.77;;;19.00;55.10;;;;;;5032291;28;20200;-59
2021/09/03 06:18:48;;;;;;;2.50;1.90;;;19.00;55.10;;;;;;5040043;22;20630;-58
2021/09/03 06:21:18;;;;;;;3.45;1.85;;;19.00;55.10;;;;;;5011783;28;20200;-56
2021/09/03 06:23:51;;;;;;;2.72;1.65;;;19.00;55.00;;;;;;5011757;28;20288;-58
2021/09/03 06:26:22;;;;;;;3.53;1.80;;;19.00;55.10;;;;;;5008911;28;20224;-62
2021/09/03 06:28:53;;;;;;;2.85;2.03;;;19.00;55.20;;;;;;5003332;28;20312;-57
2021/09/03 06:31:23;;;;;;;3.25;1.80;;;18.90;55.20;;;;;;5011811;28;20708;-54
2021/09/03 06:33:54;;;;;;;2.72;1.80;;;18.90;55.20;;;;;;5011848;28;20211;-59
2021/09/03 06:36:25;;;;;;;2.00;1.50;;;18.90;55.20;;;;;;5011749;28;20219;-58
2021/09/03 06:38:58;;;;;;;2.78;1.95;;;18.90;55.20;;;;;;5011579;28;20715;-53
2021/09/03 06:41:28;;;;;;;3.92;1.90;;;18.80;55.10;;;;;;5011261;28;20201;-58
2021/09/03 06:43:59;;;;;;;3.75;2.20;;;18.80;55.10;;;;;;5011592;28;20671;-58
2021/09/03 06:46:30;;;;;;;3.53;2.35;;;18.80;55.10;;;;;;5010989;28;20207;-61
2021/09/03 06:49:00;;;;;;;3.05;2.00;;;18.80;55.10;;;;;;5011055;28;20221;-57
2021/09/03 06:51:31;;;;;;;3.10;2.28;;;18.80;55.10;;;;;;5011563;28;20237;-59
2021/09/03 06:54:03;;;;;;;2.70;2.22;;;18.70;55.00;;;;;;5011464;28;20267;-58
2021/09/03 06:56:34;;;;;;;3.22;2.20;;;18.70;55.00;;;;;;5011570;28;20193;-58
2021/09/03 06:59:04;;;;;;;3.67;2.20;;;18.70;55.00;;;;;;5011612;28;20275;-52
2021/09/03 07:01:35;;;;;;;2.40;1.80;;;18.60;55.00;;;;;;5011301;28;20232;-55
2021/09/03 07:04:05;;;;;;;2.63;2.00;;;18.60;55.00;;;;;;5010964;28;20279;-56
2021/09/03 07:06:36;;;;;;;4.05;2.13;;;18.60;55.10;;;;;;5011040;28;20908;-59
2021/09/03 07:09:08;;;;;;;2.30;1.77;;;18.60;55.10;;;;;;5009773;28;20216;-55
2021/09/03 07:11:38;;;;;;;2.65;2.03;;;18.60;55.10;;;;;;5011418;28;20235;-56
2021/09/03 07:14:09;;;;;;;2.42;2.22;;;18.50;55.20;;;;;;5011595;28;20200;-59
2021/09/03 07:16:39;;;;;;;2.72;2.10;;;18.50;55.20;;;;;;5011036;28;20247;-56
2021/09/03 07:19:10;;;;;;;3.67;2.25;;;18.50;55.30;;;;;;5011417;28;20273;-60
2021/09/03 07:21:42;;;;;;;2.40;2.10;;;18.50;55.30;;;;;;5011002;28;20735;-52
2021/09/03 07:24:15;;;;;;;2.63;2.40;;;18.40;55.30;;;;;;5011461;28;20201;-54
2021/09/03 07:26:46;;;;;;;3.72;2.58;;;18.40;55.20;;;;;;5010197;28;20621;-56
2021/09/03 07:29:16;;;;;;;3.25;2.20;;;18.30;55.20;;;;;;5010952;28;20279;-53
2021/09/03 07:31:47;;;;;;;3.20;2.45;;;18.40;55.20;;;;;;5011021;28;20192;-56
2021/09/03 07:34:17;;;;;;;2.70;2.15;;;18.30;55.20;;;;;;5011313;28;20197;-60
2021/09/03 07:36:47;;;;;;;2.83;2.40;;;18.30;55.20;;;;;;5011106;28;20681;-61
2021/09/03 07:39:21;;;;;;;3.05;2.45;;;18.20;55.20;;;;;;5011400;28;20646;-58
2021/09/03 07:41:51;;;;;;;2.90;2.17;;;18.20;55.20;;;;;;5011014;28;20540;-58
2021/09/03 07:44:21;;;;;;;2.70;2.50;;;18.20;55.20;;;;;;5011285;28;20232;-60
2021/09/03 07:46:52;;;;;;;3.00;2.22;;;18.10;55.20;;;;;;5010888;28;20255;-56
2021/09/03 07:49:22;;;;;;;3.15;2.28;;;18.10;55.20;;;;;;5010524;28;20335;-53
2021/09/03 07:51:53;;;;;;;3.55;2.50;;;18.10;55.20;;;;;;5010562;28;20197;-52
2021/09/03 07:54:26;;;;;;;3.55;2.45;;;18.10;55.30;;;;;;5013072;28;20658;-56
2021/09/03 07:56:56;;;;;;;2.45;2.20;;;18.00;55.20;;;;;;5014018;28;20617;-56
2021/09/03 07:59:27;;;;;;;2.47;2.10;;;18.00;55.30;;;;;;5014801;28;20252;-52
2021/09/03 08:02:00;;;;;;;2.70;2.40;;;18.00;55.30;;;;;;5014833;28;20197;-53
2021/09/03 08:04:31;;;;;;;2.90;2.38;;;18.00;55.30;;;;;;5014959;28;20668;-60
2021/09/03 08:07:01;;;;;;;2.97;2.40;;;17.90;55.20;;;;;;5014266;28;20558;-55
2021/09/03 08:09:33;;;;;;;3.10;2.45;;;17.90;55.20;;;;;;5014629;28;20248;-52
2021/09/03 08:12:04;;;;;;;4.30;2.72;;;17.90;55.30;;;;;;5013852;28;20241;-46
2021/09/03 08:14:35;;;;;;;3.13;2.33;;;17.80;55.20;;;;;;5013980;28;20696;-47
2021/09/03 08:17:06;;;;;;;3.10;2.80;;;17.80;55.20;;;;;;5014632;28;20771;-46
2021/09/03 08:19:36;;;;;;;2.83;2.30;;;17.80;55.30;;;;;;5017728;22;20229;-44
2021/09/03 08:22:07;;;;;;;4.50;2.60;;;17.70;55.30;;;;;;4994683;28;20414;-55
2021/09/03 08:24:39;;;;;;;2.97;2.25;;;17.70;55.30;;;;;;4994497;28;20233;-44
2021/09/03 08:27:09;;;;;;;2.60;2.40;;;17.70;55.30;;;;;;4994162;28;20252;-42
2021/09/03 08:29:40;;;;;;;3.08;2.05;;;17.70;55.30;;;;;;4994245;28;20257;-48
2021/09/03 08:32:11;;;;;;;2.60;2.40;;;17.60;55.20;;;;;;4993950;28;20284;-52
2021/09/03 08:34:41;;;;;;;2.88;2.13;;;17.60;55.20;;;;;;4994567;28;20255;-46
2021/09/03 08:37:11;;;;;;;3.60;2.35;;;17.50;55.20;;;;;;4994433;28;20236;-42
2021/09/03 08:39:45;;;;;;;2.50;2.30;;;17.50;55.20;;;;;;4994719;28;20311;-45
2021/09/03 08:42:17;;;;;;;2.83;2.17;;;17.50;55.20;;;;;;4994855;28;20233;-53
2021/09/03 08:44:48;;;;;;;4.50;2.78;;;17.50;55.30;;;;;;4993298;28;20332;-51
2021/09/03 08:47:20;;;;;;;3.42;2.65;;;17.50;55.30;;;;;;4994519;28;20676;-51
2021/09/03 08:49:51;;;;;;;3.20;2.42;;;17.40;55.30;;;;;;4993734;28;20768;-50
2021/09/03 08:52:21;;;;;;;3.70;2.80;;;17.40;55.30;;;;;;4993690;28;20594;-46
2021/09/03 08:54:53;;;;;;;3.55;2.55;;;17.30;55.40;;;;;;4993313;28;20292;-55
2021/09/03 08:57:24;;;;;;;4.35;2.70;;;17.40;55.50;;;;;;4993597;28;20233;-49
2021/09/03 08:59:54;;;;;;;3.88;2.95;;;17.30;55.40;;;;;;4993904;28;20253;-48
2021/09/03 09:02:25;;;;;;;4.38;2.70;;;17.30;55.40;;;;;;4993936;28;20236;-49
2021/09/03 09:04:56;;;;;;;3.35;2.80;;;17.30;55.40;;;;;;4993513;28;20278;-52
2021/09/03 09:07:29;;;;;;;4.60;2.65;;;17.20;55.40;;;;;;4993512;28;20654;-44
2021/09/03 09:10:02;;;;;;;3.45;2.65;;;17.20;55.40;;;;;;4993710;28;20217;-51
2021/09/03 09:12:33;;;;;;;3.30;2.63;;;17.20;55.40;;;;;;4993184;28;20221;-47
2021/09/03 09:15:05;;;;;;;3.33;2.92;;;17.10;55.30;;;;;;4992883;28;20201;-51
2021/09/03 09:17:36;;;;;;;4.05;3.17;;;17.10;55.30;;;;;;4991747;28;20202;-50
2021/09/03 09:20:09;;;;;;;4.88;2.75;;;17.10;55.40;;;;;;5027853;23;20256;-47
2021/09/03 09:22:55;;;;;;;4.63;2.97;;;17.00;55.30;;;;;;5012288;28;20236;-47
2021/09/03 09:25:28;;;;;;;2.95;2.55;;;17.00;55.40;;;;;;5012396;28;20204;-49
2021/09/03 09:28:14;;;;;;;3.00;2.47;;;17.00;55.40;;;;;;5012251;28;20197;-45
2021/09/03 09:30:45;;;;;;;4.38;2.67;;;16.90;55.40;;;;;;5012303;28;20264;-46
2021/09/03 09:33:16;;;;;;;4.45;3.05;;;16.90;55.40;;;;;;5012491;28;20200;-46
2021/09/03 09:35:48;;;;;;;3.22;2.50;;;16.90;55.40;;;;;;5012310;28;20612;-46
2021/09/03 09:38:19;;;;;;;2.80;2.47;;;16.80;55.40;;;;;;5012402;28;20225;-52
2021/09/03 09:40:55;;;;;;;3.70;2.90;;;16.80;55.40;;;;;;5011975;28;20232;-50
2021/09/03 09:43:34;;;;;;;3.15;2.70;;;16.80;55.40;;;;;;5012512;28;20588;-48
2021/09/03 09:46:24;;;;;;;3.95;2.80;;;16.80;55.40;;;;;;5012379;28;20255;-47
2021/09/03 09:49:18;;;;;;;3.50;2.67;;;16.70;55.30;;;;;;5012074;28;20217;-46
2021/09/03 09:51:52;;;;;;;4.40;2.88;;;16.70;55.40;;;;;;5012161;28;20298;-47
2021/09/03 09:54:23;;;;;;;3.42;2.50;;;16.70;55.40;;;;;;5012230;28;20197;-46
2021/09/03 09:56:58;;;;;;;4.47;2.88;;;16.60;55.40;;;;;;5012672;28;20197;-48
2021/09/03 09:59:28;;;;;;;6.45;3.10;;;16.60;55.40;;;;;;5012378;28;20255;-49
2021/09/03 10:01:59;;;;;;;5.82;2.95;;;16.60;55.40;;;;;;5012383;28;20235;-49
2021/09/03 10:04:30;;;;;;;4.18;2.85;;;16.50;55.40;;;;;;5012087;28;20725;-46
2021/09/03 10:07:01;;;;;;;2.83;2.58;;;16.50;55.40;;;;;;5011802;28;20311;-49
2021/09/03 10:09:33;;;;;;;4.60;3.15;;;16.50;55.50;;;;;;5011650;28;20216;-46
2021/09/03 10:12:06;;;;;;;4.47;2.92;;;16.40;55.50;;;;;;5011825;28;20235;-47
2021/09/03 10:14:37;;;;;;;3.10;2.80;;;16.40;55.50;;;;;;5012078;28;20193;-55
2021/09/03 10:17:10;;;;;;;5.10;3.08;;;16.40;55.50;;;;;;5011492;28;20193;-46
2021/09/03 10:19:41;;;;;;;3.70;2.67;;;16.30;55.50;;;;;;5023971;23;20317;-41
2021/09/03 10:22:12;;;;;;;5.72;3.10;;;16.30;55.60;;;;;;5012200;28;20211;-52
2021/09/03 10:24:45;;;;;;;4.47;2.83;;;16.30;55.70;;;;;;5012599;28;20196;-56
2021/09/03 10:27:17;;;;;;;4.00;2.60;;;16.30;55.80;;;;;;5011759;28;20213;-53
2021/09/03 10:29:48;;;;;;;4.18;2.80;;;16.30;55.80;;;;;;5011018;28;20300;-47
2021/09/03 10:32:21;;;;;;;3.67;3.10;;;16.30;55.80;;;;;;5011330;28;20243;-54
2021/09/03 10:35:02;;;;;;;5.43;2.72;;;16.30;55.80;;;;;;5011918;28;20220;-57
2021/09/03 10:37:41;;;;;;;4.93;2.85;;;16.20;55.80;;;;;;5011682;28;20223;-58
2021/09/03 10:40:40;;;;;;;4.78;3.08;;;16.20;55.80;;;;;;5011731;28;20256;-54
2021/09/03 10:43:13;;;;;;;4.57;2.95;;;16.20;55.80;;;;;;5007578;28;20436;-55
2021/09/03 10:45:44;;;;;;;4.85;3.15;;;16.20;55.70;;;;;;5011285;28;20239;-55
2021/09/03 10:48:16;;;;;;;3.13;2.42;;;16.20;55.80;;;;;;5010942;28;20205;-53
2021/09/03 10:50:52;;;;;;;2.65;2.20;;;16.10;55.80;;;;;;5011030;28;20286;-57
2021/09/03 10:53:24;;;;;;;2.85;2.53;;;16.20;55.90;;;;;;5011390;28;20200;-43
2021/09/03 10:55:58;;;;;;;3.53;2.40;;;16.10;55.90;;;;;;5007329;28;20707;-52
2021/09/03 10:58:53;;;;;;;2.75;2.45;;;16.00;55.90;;;;;;5010131;28;20232;-57
2021/09/03 11:01:51;;;;;;;3.78;2.85;;;16.00;55.90;;;;;;5010992;28;20229;-48
2021/09/03 11:04:24;;;;;;;3.05;2.75;;;16.00;56.00;;;;;;5009965;28;20709;-55
2021/09/03 11:07:13;;;;;;;2.60;2.35;;;16.00;55.90;;;;;;5011017;28;20197;-54
2021/09/03 11:09:47;;;;;;;2.90;2.60;;;16.00;56.00;;;;;;5010207;28;20221;-57
2021/09/03 11:12:21;;;;;;;3.50;2.45;;;16.00;56.00;;;;;;5010976;28;20223;-50
2021/09/03 11:14:57;;;;;;;2.75;2.28;;;16.00;56.10;;;;;;5010304;28;20292;-52
2021/09/03 11:17:29;;;;;;;2.80;2.40;;;16.00;56.10;;;;;;5009978;28;20222;-53
2021/09/03 11:20:04;;;;;;;2.83;2.50;;;15.90;56.00;;;;;;5010718;28;20616;-55
2021/09/03 11:22:36;;;;;;;9.48;2.90;;;15.90;56.00;;;;;;5010357;28;20227;-53
2021/09/03 11:25:08;;;;;;;14.98;3.80;;;15.90;56.00;;;;;;5009852;28;20266;-47
2021/09/03 11:27:41;;;;;;;16.30;3.47;;;15.90;56.00;;;;;;5010957;28;20197;-46
2021/09/03 11:30:16;;;;;;;13.95;3.33;;;15.90;56.10;;;;;;5013217;28;20224;-49
2021/09/03 11:32:47;;;;;;;12.43;3.03;;;15.90;56.10;;;;;;5013876;28;20220;-46
2021/09/03 11:35:21;;;;;;;8.70;2.92;;;15.90;56.10;;;;;;5014536;28;20211;-51
2021/09/03 11:37:52;;;;;;;13.82;3.35;;;15.80;56.10;;;;;;5013625;28;20278;-45
2021/09/03 11:40:26;;;;;;;6.97;2.65;;;15.80;56.10;;;;;;5014896;28;20278;-53
2021/09/03 11:42:57;;;;;;;7.03;3.20;;;15.80;56.10;;;;;;5013688;28;20283;-46
2021/09/03 11:45:30;;;;;;;7.88;2.55;;;15.80;56.20;;;;;;5015037;28;20239;-56
2021/09/03 11:48:01;;;;;;;8.60;3.22;;;15.80;56.20;;;;;;5014213;28;20207;-44
2021/09/03 11:50:31;;;;;;;7.90;2.80;;;15.80;56.20;;;;;;5013953;28;20252;-43
2021/09/03 11:53:02;;;;;;;10.43;3.10;;;15.80;56.20;;;;;;5012986;28;20636;-44
2021/09/03 11:55:35;;;;;;;5.72;2.30;;;15.80;56.20;;;;;;5015098;28;20255;-41
2021/09/03 11:58:06;;;;;;;7.38;2.80;;;15.70;56.20;;;;;;5013999;28;20236;-42
2021/09/03 12:00:39;;;;;;;5.32;2.63;;;15.70;56.10;;;;;;5014005;28;20271;-41
2021/09/03 12:03:09;;;;;;;4.68;2.33;;;15.70;56.20;;;;;;5014137;28;20248;-43
2021/09/03 12:05:40;;;;;;;6.28;2.80;;;15.70;56.20;;;;;;5013737;28;20193;-42
2021/09/03 12:08:12;;;;;;;4.60;2.30;;;15.70;56.20;;;;;;5013731;28;20236;-43
2021/09/03 12:10:44;;;;;;;4.70;2.53;;;15.70;56.20;;;;;;5013576;28;20255;-52
2021/09/03 12:13:15;;;;;;;3.83;2.30;;;15.70;56.20;;;;;;5011777;28;20615;-55
2021/09/03 12:15:48;;;;;;;6.28;2.65;;;15.70;56.20;;;;;;5014558;28;20233;-55
2021/09/03 12:18:27;;;;;;;4.78;2.53;;;15.70;56.20;;;;;;5014034;28;20239;-51
2021/09/03 12:20:59;;;;;;;4.47;2.45;;;15.60;56.20;;;;;;5014232;28;20207;-58
2021/09/03 12:23:33;;;;;;;5.63;2.35;;;15.60;56.20;;;;;;5011850;23;20280;-49
2021/09/03 12:26:09;;;;;;;3.85;2.58;;;15.70;56.30;;;;;;4994803;28;20240;-50
2021/09/03 12:28:39;;;;;;;4.43;2.40;;;15.60;56.30;;;;;;4994104;28;20289;-54
2021/09/03 12:31:14;;;;;;;4.55;2.30;;;15.60;56.30;;;;;;4993913;28;20267;-47
2021/09/03 12:33:52;;;;;;;4.03;2.00;;;15.60;56.90;;;;;;4994535;28;20228;-53
2021/09/03 12:36:24;;;;;;;4.75;2.28;;;15.60;56.30;;;;;;4994492;28;20209;-57
2021/09/03 12:38:56;;;;;;;2.80;2.30;;;15.60;56.30;;;;;;4993379;28;20248;-58
2021/09/03 12:41:30;;;;;;;2.80;1.77;;;15.60;56.30;;;;;;4994192;28;20233;-50
2021/09/03 12:44:02;;;;;;;3.28;2.20;;;15.60;56.30;;;;;;4993817;28;20197;-54
2021/09/03 12:46:38;;;;;;;3.47;1.90;;;15.60;56.30;;;;;;4993721;28;20198;-52
2021/09/03 12:49:20;;;;;;;3.22;2.35;;;15.50;56.30;;;;;;4993492;28;20214;-46
2021/09/03 12:51:52;;;;;;;2.92;2.08;;;15.50;56.30;;;;;;4994099;28;20225;-50
2021/09/03 12:54:23;;;;;;;3.33;1.98;;;15.50;56.30;;;;;;4994341;28;20201;-49
2021/09/03 12:56:53;;;;;;;3.80;2.17;;;15.50;56.30;;;;;;4994145;28;20202;-59
2021/09/03 12:59:25;;;;;;;3.10;2.00;;;15.50;56.30;;;;;;4994256;28;20217;-58
2021/09/03 13:01:57;;;;;;;4.95;2.55;;;15.50;56.30;;;;;;4993988;28;20692;-58
2021/09/03 13:04:28;;;;;;;3.65;1.95;;;15.50;56.30;;;;;;4993904;28;20251;-57
2021/09/03 13:06:58;;;;;;;3.72;2.20;;;15.50;56.30;;;;;;4993789;28;20662;-58
2021/09/03 13:09:29;;;;;;;2.75;2.03;;;15.50;56.40;;;;;;4993861;28;20217;-49